sensor_id;sensor_type;location;lat;lon;timestamp;P1;durP1;ratioP1;P2;durP2;ratioP2
76332;SDS011;71254;53.010;6.508;2024-02-04T00:01:24;6.93;;;3.10;;
76332;SDS011;71254;53.010;6.508;2024-02-04T00:03:50;6.82;;;3.50;;
76332;SDS011;71254;53.010;6.508;2024-02-04T00:06:16;5.40;;;2.85;;
76332;SDS011;71254;53.010;6.508;2024-02-04T00:08:41;9.60;;;3.03;;
76332;SDS011;71254;53.010;6.508;2024-02-04T00:11:07;8.68;;;3.00;;
76332;SDS011;71254;53.010;6.508;2024-02-04T00:13:36;9.40;;;2.92;;
76332;SDS011;71254;53.010;6.508;2024-02-04T00:16:03;5.88;;;2.95;;
76332;SDS011;71254;53.010;6.508;2024-02-04T00:18:28;6.10;;;2.70;;
76332;SDS011;71254;53.010;6.508;2024-02-04T00:20:54;8.13;;;3.33;;
76332;SDS011;71254;53.010;6.508;2024-02-04T00:23:20;7.70;;;3.15;;
76332;SDS011;71254;53.010;6.508;2024-02-04T00:25:45;11.18;;;3.22;;
76332;SDS011;71254;53.010;6.508;2024-02-04T00:28:11;9.23;;;3.53;;
76332;SDS011;71254;53.010;6.508;2024-02-04T00:30:37;11.35;;;3.35;;
76332;SDS011;71254;53.010;6.508;2024-02-04T00:33:03;5.38;;;3.03;;
76332;SDS011;71254;53.010;6.508;2024-02-04T00:35:29;6.90;;;2.78;;
76332;SDS011;71254;53.010;6.508;2024-02-04T00:37:55;11.88;;;2.83;;
76332;SDS011;71254;53.010;6.508;2024-02-04T00:40:21;9.57;;;3.42;;
76332;SDS011;71254;53.010;6.508;2024-02-04T00:42:47;7.85;;;3.17;;
76332;SDS011;71254;53.010;6.508;2024-02-04T00:45:12;10.73;;;2.95;;
76332;SDS011;71254;53.010;6.508;2024-02-04T00:47:38;6.45;;;2.60;;
76332;SDS011;71254;53.010;6.508;2024-02-04T00:50:04;8.35;;;2.63;;
76332;SDS011;71254;53.010;6.508;2024-02-04T00:52:30;12.20;;;2.97;;
76332;SDS011;71254;53.010;6.508;2024-02-04T00:54:55;13.45;;;3.45;;
76332;SDS011;71254;53.010;6.508;2024-02-04T00:57:21;9.88;;;2.33;;
76332;SDS011;71254;53.010;6.508;2024-02-04T00:59:46;9.75;;;2.53;;
76332;SDS011;71254;53.010;6.508;2024-02-04T01:02:12;5.95;;;2.47;;
76332;SDS011;71254;53.010;6.508;2024-02-04T01:04:38;7.45;;;2.70;;
76332;SDS011;71254;53.010;6.508;2024-02-04T01:07:04;6.55;;;2.20;;
76332;SDS011;71254;53.010;6.508;2024-02-04T01:09:29;7.60;;;2.90;;
76332;SDS011;71254;53.010;6.508;2024-02-04T01:11:55;5.22;;;2.05;;
76332;SDS011;71254;53.010;6.508;2024-02-04T01:14:21;8.70;;;2.42;;
76332;SDS011;71254;53.010;6.508;2024-02-04T01:16:46;8.68;;;2.90;;
76332;SDS011;71254;53.010;6.508;2024-02-04T01:19:12;8.90;;;2.83;;
76332;SDS011;71254;53.010;6.508;2024-02-04T01:21:37;10.70;;;2.70;;
76332;SDS011;71254;53.010;6.508;2024-02-04T01:24:03;8.13;;;2.20;;
76332;SDS011;71254;53.010;6.508;2024-02-04T01:26:29;6.78;;;2.30;;
76332;SDS011;71254;53.010;6.508;2024-02-04T01:28:54;7.05;;;2.30;;
76332;SDS011;71254;53.010;6.508;2024-02-04T01:31:20;6.97;;;3.00;;
76332;SDS011;71254;53.010;6.508;2024-02-04T01:33:46;10.95;;;2.53;;
76332;SDS011;71254;53.010;6.508;2024-02-04T01:36:11;7.68;;;2.53;;
76332;SDS011;71254;53.010;6.508;2024-02-04T01:38:37;8.82;;;2.30;;
76332;SDS011;71254;53.010;6.508;2024-02-04T01:41:02;8.15;;;2.30;;
76332;SDS011;71254;53.010;6.508;2024-02-04T01:43:28;5.03;;;2.08;;
76332;SDS011;71254;53.010;6.508;2024-02-04T01:45:54;7.32;;;2.20;;
76332;SDS011;71254;53.010;6.508;2024-02-04T01:48:21;9.52;;;2.17;;
76332;SDS011;71254;53.010;6.508;2024-02-04T01:50:47;10.50;;;2.88;;
76332;SDS011;71254;53.010;6.508;2024-02-04T01:53:14;5.30;;;2.60;;
76332;SDS011;71254;53.010;6.508;2024-02-04T01:55:42;9.45;;;2.45;;
76332;SDS011;71254;53.010;6.508;2024-02-04T01:58:08;7.47;;;2.50;;
76332;SDS011;71254;53.010;6.508;2024-02-04T02:00:35;10.20;;;2.50;;
76332;SDS011;71254;53.010;6.508;2024-02-04T02:03:01;9.82;;;2.40;;
76332;SDS011;71254;53.010;6.508;2024-02-04T02:05:30;8.27;;;2.30;;
76332;SDS011;71254;53.010;6.508;2024-02-04T02:07:56;7.95;;;2.20;;
76332;SDS011;71254;53.010;6.508;2024-02-04T02:10:21;9.23;;;2.88;;
76332;SDS011;71254;53.010;6.508;2024-02-04T02:12:54;9.23;;;2.75;;
76332;SDS011;71254;53.010;6.508;2024-02-04T02:15:27;13.02;;;3.00;;
76332;SDS011;71254;53.010;6.508;2024-02-04T02:18:02;8.57;;;2.67;;
76332;SDS011;71254;53.010;6.508;2024-02-04T02:23:43;11.02;;;2.53;;
76332;SDS011;71254;53.010;6.508;2024-02-04T02:26:29;6.25;;;2.47;;
76332;SDS011;71254;53.010;6.508;2024-02-04T02:28:58;6.30;;;2.75;;
76332;SDS011;71254;53.010;6.508;2024-02-04T02:31:24;8.63;;;2.58;;
76332;SDS011;71254;53.010;6.508;2024-02-04T02:33:50;8.63;;;2.90;;
76332;SDS011;71254;53.010;6.508;2024-02-04T02:36:17;14.40;;;2.70;;
76332;SDS011;71254;53.010;6.508;2024-02-04T02:38:52;5.38;;;2.25;;
76332;SDS011;71254;53.010;6.508;2024-02-04T02:41:24;11.23;;;2.80;;
76332;SDS011;71254;53.010;6.508;2024-02-04T02:43:52;7.20;;;3.05;;
76332;SDS011;71254;53.010;6.508;2024-02-04T02:46:20;8.18;;;2.95;;
76332;SDS011;71254;53.010;6.508;2024-02-04T02:48:46;9.82;;;3.03;;
76332;SDS011;71254;53.010;6.508;2024-02-04T02:51:12;10.05;;;2.65;;
76332;SDS011;71254;53.010;6.508;2024-02-04T02:53:37;10.35;;;3.20;;
76332;SDS011;71254;53.010;6.508;2024-02-04T02:56:03;9.23;;;3.45;;
76332;SDS011;71254;53.010;6.508;2024-02-04T02:58:29;8.95;;;3.47;;
76332;SDS011;71254;53.010;6.508;2024-02-04T03:00:54;10.05;;;3.47;;
76332;SDS011;71254;53.010;6.508;2024-02-04T03:03:20;14.35;;;3.67;;
76332;SDS011;71254;53.010;6.508;2024-02-04T03:05:45;10.27;;;4.78;;
76332;SDS011;71254;53.010;6.508;2024-02-04T03:08:11;8.93;;;4.07;;
76332;SDS011;71254;53.010;6.508;2024-02-04T03:10:37;14.82;;;4.38;;
76332;SDS011;71254;53.010;6.508;2024-02-04T03:13:03;14.05;;;4.47;;
76332;SDS011;71254;53.010;6.508;2024-02-04T03:15:29;12.00;;;4.35;;
76332;SDS011;71254;53.010;6.508;2024-02-04T03:17:54;11.88;;;4.38;;
76332;SDS011;71254;53.010;6.508;2024-02-04T03:20:20;14.25;;;4.10;;
76332;SDS011;71254;53.010;6.508;2024-02-04T03:22:48;8.68;;;3.92;;
76332;SDS011;71254;53.010;6.508;2024-02-04T03:25:14;16.38;;;5.13;;
76332;SDS011;71254;53.010;6.508;2024-02-04T03:27:40;10.70;;;4.32;;
76332;SDS011;71254;53.010;6.508;2024-02-04T03:30:05;11.02;;;4.07;;
76332;SDS011;71254;53.010;6.508;2024-02-04T03:32:31;12.77;;;4.15;;
76332;SDS011;71254;53.010;6.508;2024-02-04T03:34:59;11.68;;;4.07;;
76332;SDS011;71254;53.010;6.508;2024-02-04T03:37:25;9.23;;;3.28;;
76332;SDS011;71254;53.010;6.508;2024-02-04T03:39:51;12.85;;;3.95;;
76332;SDS011;71254;53.010;6.508;2024-02-04T03:42:16;13.25;;;3.67;;
76332;SDS011;71254;53.010;6.508;2024-02-04T03:44:43;11.15;;;3.75;;
76332;SDS011;71254;53.010;6.508;2024-02-04T03:47:09;14.77;;;4.50;;
76332;SDS011;71254;53.010;6.508;2024-02-04T03:49:34;13.93;;;4.18;;
76332;SDS011;71254;53.010;6.508;2024-02-04T03:52:00;11.60;;;3.42;;
76332;SDS011;71254;53.010;6.508;2024-02-04T03:54:25;11.85;;;3.22;;
76332;SDS011;71254;53.010;6.508;2024-02-04T03:56:51;10.93;;;3.15;;
76332;SDS011;71254;53.010;6.508;2024-02-04T03:59:16;8.75;;;2.72;;
76332;SDS011;71254;53.010;6.508;2024-02-04T04:01:49;10.55;;;3.38;;
76332;SDS011;71254;53.010;6.508;2024-02-04T04:04:15;12.85;;;3.45;;
76332;SDS011;71254;53.010;6.508;2024-02-04T04:06:42;13.20;;;3.72;;
76332;SDS011;71254;53.010;6.508;2024-02-04T04:09:09;13.00;;;2.75;;
76332;SDS011;71254;53.010;6.508;2024-02-04T04:11:35;12.35;;;3.55;;
76332;SDS011;71254;53.010;6.508;2024-02-04T04:14:01;9.27;;;3.05;;
76332;SDS011;71254;53.010;6.508;2024-02-04T04:16:27;17.70;;;4.90;;
76332;SDS011;71254;53.010;6.508;2024-02-04T04:18:53;12.40;;;2.85;;
76332;SDS011;71254;53.010;6.508;2024-02-04T04:21:18;11.82;;;2.95;;
76332;SDS011;71254;53.010;6.508;2024-02-04T04:23:44;15.90;;;3.00;;
76332;SDS011;71254;53.010;6.508;2024-02-04T04:26:09;9.98;;;2.78;;
76332;SDS011;71254;53.010;6.508;2024-02-04T04:28:35;9.00;;;2.90;;
76332;SDS011;71254;53.010;6.508;2024-02-04T04:31:01;14.15;;;3.00;;
76332;SDS011;71254;53.010;6.508;2024-02-04T04:33:26;10.32;;;3.25;;
76332;SDS011;71254;53.010;6.508;2024-02-04T04:35:52;12.35;;;3.15;;
76332;SDS011;71254;53.010;6.508;2024-02-04T04:38:18;9.05;;;2.78;;
76332;SDS011;71254;53.010;6.508;2024-02-04T04:40:43;13.30;;;2.75;;
76332;SDS011;71254;53.010;6.508;2024-02-04T04:43:09;8.98;;;2.78;;
76332;SDS011;71254;53.010;6.508;2024-02-04T04:45:34;9.82;;;3.08;;
76332;SDS011;71254;53.010;6.508;2024-02-04T04:48:00;11.25;;;3.45;;
76332;SDS011;71254;53.010;6.508;2024-02-04T04:50:25;6.28;;;2.80;;
76332;SDS011;71254;53.010;6.508;2024-02-04T04:52:51;13.35;;;3.83;;
76332;SDS011;71254;53.010;6.508;2024-02-04T04:55:18;11.15;;;3.03;;
76332;SDS011;71254;53.010;6.508;2024-02-04T04:57:44;8.73;;;2.78;;
76332;SDS011;71254;53.010;6.508;2024-02-04T05:00:10;13.20;;;3.10;;
76332;SDS011;71254;53.010;6.508;2024-02-04T05:02:37;11.35;;;2.88;;
76332;SDS011;71254;53.010;6.508;2024-02-04T05:05:05;12.63;;;3.65;;
76332;SDS011;71254;53.010;6.508;2024-02-04T05:07:31;14.55;;;3.53;;
76332;SDS011;71254;53.010;6.508;2024-02-04T05:09:56;14.35;;;3.20;;
76332;SDS011;71254;53.010;6.508;2024-02-04T05:12:22;7.75;;;2.30;;
76332;SDS011;71254;53.010;6.508;2024-02-04T05:14:48;8.63;;;2.78;;
76332;SDS011;71254;53.010;6.508;2024-02-04T05:17:13;11.13;;;3.50;;
76332;SDS011;71254;53.010;6.508;2024-02-04T05:19:43;10.75;;;2.67;;
76332;SDS011;71254;53.010;6.508;2024-02-04T05:22:08;9.50;;;2.85;;
76332;SDS011;71254;53.010;6.508;2024-02-04T05:24:34;11.82;;;2.85;;
76332;SDS011;71254;53.010;6.508;2024-02-04T05:27:00;12.93;;;3.38;;
76332;SDS011;71254;53.010;6.508;2024-02-04T05:29:25;10.07;;;2.80;;
76332;SDS011;71254;53.010;6.508;2024-02-04T05:31:51;11.80;;;3.20;;
76332;SDS011;71254;53.010;6.508;2024-02-04T05:34:16;7.80;;;2.80;;
76332;SDS011;71254;53.010;6.508;2024-02-04T05:36:42;9.88;;;2.70;;
76332;SDS011;71254;53.010;6.508;2024-02-04T05:39:11;9.63;;;2.50;;
76332;SDS011;71254;53.010;6.508;2024-02-04T05:41:40;6.97;;;2.70;;
76332;SDS011;71254;53.010;6.508;2024-02-04T05:44:07;7.32;;;2.30;;
76332;SDS011;71254;53.010;6.508;2024-02-04T05:46:35;7.25;;;2.92;;
76332;SDS011;71254;53.010;6.508;2024-02-04T05:49:02;7.45;;;2.67;;
76332;SDS011;71254;53.010;6.508;2024-02-04T05:51:27;9.50;;;3.13;;
76332;SDS011;71254;53.010;6.508;2024-02-04T05:53:53;11.88;;;2.72;;
76332;SDS011;71254;53.010;6.508;2024-02-04T05:56:19;8.50;;;2.90;;
76332;SDS011;71254;53.010;6.508;2024-02-04T05:58:46;8.07;;;2.20;;
76332;SDS011;71254;53.010;6.508;2024-02-04T06:01:11;10.45;;;2.60;;
76332;SDS011;71254;53.010;6.508;2024-02-04T06:03:37;11.07;;;3.40;;
76332;SDS011;71254;53.010;6.508;2024-02-04T06:06:03;8.75;;;3.03;;
76332;SDS011;71254;53.010;6.508;2024-02-04T06:08:29;10.65;;;2.55;;
76332;SDS011;71254;53.010;6.508;2024-02-04T06:10:55;11.90;;;3.17;;
76332;SDS011;71254;53.010;6.508;2024-02-04T06:13:20;8.98;;;2.83;;
76332;SDS011;71254;53.010;6.508;2024-02-04T06:15:46;7.65;;;2.33;;
76332;SDS011;71254;53.010;6.508;2024-02-04T06:18:11;8.40;;;2.60;;
76332;SDS011;71254;53.010;6.508;2024-02-04T06:20:37;11.48;;;2.97;;
76332;SDS011;71254;53.010;6.508;2024-02-04T06:23:03;9.63;;;3.08;;
76332;SDS011;71254;53.010;6.508;2024-02-04T06:25:28;9.45;;;3.00;;
76332;SDS011;71254;53.010;6.508;2024-02-04T06:27:54;8.50;;;2.10;;
76332;SDS011;71254;53.010;6.508;2024-02-04T06:30:19;8.20;;;2.65;;
76332;SDS011;71254;53.010;6.508;2024-02-04T06:32:47;10.23;;;2.60;;
76332;SDS011;71254;53.010;6.508;2024-02-04T06:35:13;8.77;;;2.40;;
76332;SDS011;71254;53.010;6.508;2024-02-04T06:37:40;10.63;;;3.00;;
76332;SDS011;71254;53.010;6.508;2024-02-04T06:40:06;6.28;;;2.30;;
76332;SDS011;71254;53.010;6.508;2024-02-04T06:42:32;13.05;;;2.72;;
76332;SDS011;71254;53.010;6.508;2024-02-04T06:44:58;10.55;;;3.17;;
76332;SDS011;71254;53.010;6.508;2024-02-04T06:47:23;10.32;;;2.95;;
76332;SDS011;71254;53.010;6.508;2024-02-04T06:49:49;10.27;;;3.15;;
76332;SDS011;71254;53.010;6.508;2024-02-04T06:52:14;6.45;;;2.38;;
76332;SDS011;71254;53.010;6.508;2024-02-04T06:54:40;9.63;;;2.75;;
76332;SDS011;71254;53.010;6.508;2024-02-04T06:57:06;9.13;;;2.75;;
76332;SDS011;71254;53.010;6.508;2024-02-04T06:59:31;10.05;;;2.78;;
76332;SDS011;71254;53.010;6.508;2024-02-04T07:01:57;13.90;;;2.75;;
76332;SDS011;71254;53.010;6.508;2024-02-04T07:04:22;10.93;;;2.58;;
76332;SDS011;71254;53.010;6.508;2024-02-04T07:06:49;12.52;;;2.85;;
76332;SDS011;71254;53.010;6.508;2024-02-04T07:09:15;9.52;;;2.63;;
76332;SDS011;71254;53.010;6.508;2024-02-04T07:11:41;12.95;;;2.90;;
76332;SDS011;71254;53.010;6.508;2024-02-04T07:14:07;10.93;;;2.72;;
76332;SDS011;71254;53.010;6.508;2024-02-04T07:16:33;11.30;;;3.10;;
76332;SDS011;71254;53.010;6.508;2024-02-04T07:18:59;7.53;;;2.72;;
76332;SDS011;71254;53.010;6.508;2024-02-04T07:21:24;9.73;;;2.70;;
76332;SDS011;71254;53.010;6.508;2024-02-04T07:23:50;13.55;;;2.70;;
76332;SDS011;71254;53.010;6.508;2024-02-04T07:26:16;10.68;;;2.78;;
76332;SDS011;71254;53.010;6.508;2024-02-04T07:28:41;11.15;;;3.10;;
76332;SDS011;71254;53.010;6.508;2024-02-04T07:31:07;12.27;;;3.08;;
76332;SDS011;71254;53.010;6.508;2024-02-04T07:33:33;14.70;;;3.05;;
76332;SDS011;71254;53.010;6.508;2024-02-04T07:35:58;9.00;;;2.70;;
76332;SDS011;71254;53.010;6.508;2024-02-04T07:38:24;10.18;;;2.72;;
76332;SDS011;71254;53.010;6.508;2024-02-04T07:40:49;10.63;;;3.00;;
76332;SDS011;71254;53.010;6.508;2024-02-04T07:43:15;9.27;;;3.28;;
76332;SDS011;71254;53.010;6.508;2024-02-04T07:45:41;15.50;;;3.33;;
76332;SDS011;71254;53.010;6.508;2024-02-04T07:48:07;10.88;;;3.22;;
76332;SDS011;71254;53.010;6.508;2024-02-04T07:50:34;9.88;;;2.80;;
76332;SDS011;71254;53.010;6.508;2024-02-04T07:53:00;13.85;;;2.90;;
76332;SDS011;71254;53.010;6.508;2024-02-04T07:55:25;6.03;;;2.53;;
76332;SDS011;71254;53.010;6.508;2024-02-04T07:57:51;11.75;;;3.10;;
76332;SDS011;71254;53.010;6.508;2024-02-04T08:00:17;9.77;;;3.65;;
76332;SDS011;71254;53.010;6.508;2024-02-04T08:02:46;8.60;;;2.60;;
76332;SDS011;71254;53.010;6.508;2024-02-04T08:05:12;15.00;;;3.58;;
76332;SDS011;71254;53.010;6.508;2024-02-04T08:07:37;12.55;;;3.72;;
76332;SDS011;71254;53.010;6.508;2024-02-04T08:10:03;8.40;;;2.88;;
76332;SDS011;71254;53.010;6.508;2024-02-04T08:12:30;10.90;;;2.92;;
76332;SDS011;71254;53.010;6.508;2024-02-04T08:14:55;11.63;;;3.15;;
76332;SDS011;71254;53.010;6.508;2024-02-04T08:17:21;11.65;;;2.78;;
76332;SDS011;71254;53.010;6.508;2024-02-04T08:19:47;12.07;;;3.42;;
76332;SDS011;71254;53.010;6.508;2024-02-04T08:22:12;10.23;;;2.90;;
76332;SDS011;71254;53.010;6.508;2024-02-04T08:24:38;9.85;;;3.17;;
76332;SDS011;71254;53.010;6.508;2024-02-04T08:27:03;7.80;;;2.83;;
76332;SDS011;71254;53.010;6.508;2024-02-04T08:29:29;9.88;;;3.58;;
76332;SDS011;71254;53.010;6.508;2024-02-04T08:31:55;6.55;;;2.90;;
76332;SDS011;71254;53.010;6.508;2024-02-04T08:34:21;8.70;;;3.22;;
76332;SDS011;71254;53.010;6.508;2024-02-04T08:36:49;12.07;;;3.60;;
76332;SDS011;71254;53.010;6.508;2024-02-04T08:39:15;8.23;;;3.20;;
76332;SDS011;71254;53.010;6.508;2024-02-04T08:41:41;9.70;;;3.20;;
76332;SDS011;71254;53.010;6.508;2024-02-04T08:44:06;8.27;;;3.20;;
76332;SDS011;71254;53.010;6.508;2024-02-04T08:46:32;8.07;;;3.78;;
76332;SDS011;71254;53.010;6.508;2024-02-04T08:48:58;9.32;;;3.00;;
76332;SDS011;71254;53.010;6.508;2024-02-04T08:51:23;9.15;;;3.30;;
76332;SDS011;71254;53.010;6.508;2024-02-04T08:53:49;8.07;;;2.60;;
76332;SDS011;71254;53.010;6.508;2024-02-04T08:56:14;11.68;;;3.35;;
76332;SDS011;71254;53.010;6.508;2024-02-04T08:58:40;8.63;;;3.00;;
76332;SDS011;71254;53.010;6.508;2024-02-04T09:01:05;8.82;;;3.08;;
76332;SDS011;71254;53.010;6.508;2024-02-04T09:03:32;9.95;;;3.33;;
76332;SDS011;71254;53.010;6.508;2024-02-04T09:05:58;6.15;;;2.95;;
76332;SDS011;71254;53.010;6.508;2024-02-04T09:08:24;7.57;;;2.63;;
76332;SDS011;71254;53.010;6.508;2024-02-04T09:10:50;8.20;;;2.97;;
76332;SDS011;71254;53.010;6.508;2024-02-04T09:13:15;11.07;;;3.50;;
76332;SDS011;71254;53.010;6.508;2024-02-04T09:15:41;5.82;;;2.85;;
76332;SDS011;71254;53.010;6.508;2024-02-04T09:18:07;7.15;;;2.75;;
76332;SDS011;71254;53.010;6.508;2024-02-04T09:20:32;7.47;;;2.65;;
76332;SDS011;71254;53.010;6.508;2024-02-04T09:22:58;6.57;;;2.70;;
76332;SDS011;71254;53.010;6.508;2024-02-04T09:25:24;7.60;;;2.60;;
76332;SDS011;71254;53.010;6.508;2024-02-04T09:27:50;7.25;;;2.85;;
76332;SDS011;71254;53.010;6.508;2024-02-04T09:30:15;8.75;;;2.70;;
76332;SDS011;71254;53.010;6.508;2024-02-04T09:32:41;7.32;;;2.47;;
76332;SDS011;71254;53.010;6.508;2024-02-04T09:35:07;8.23;;;2.70;;
76332;SDS011;71254;53.010;6.508;2024-02-04T09:37:34;5.10;;;2.63;;
76332;SDS011;71254;53.010;6.508;2024-02-04T09:40:00;6.82;;;2.20;;
76332;SDS011;71254;53.010;6.508;2024-02-04T09:42:25;7.20;;;2.47;;
76332;SDS011;71254;53.010;6.508;2024-02-04T09:44:53;6.93;;;2.47;;
76332;SDS011;71254;53.010;6.508;2024-02-04T09:47:18;6.10;;;2.55;;
76332;SDS011;71254;53.010;6.508;2024-02-04T09:49:45;7.07;;;2.25;;
76332;SDS011;71254;53.010;6.508;2024-02-04T09:52:11;7.63;;;2.28;;
76332;SDS011;71254;53.010;6.508;2024-02-04T09:54:43;8.15;;;2.53;;
76332;SDS011;71254;53.010;6.508;2024-02-04T09:57:10;3.55;;;1.90;;
76332;SDS011;71254;53.010;6.508;2024-02-04T09:59:37;6.22;;;2.20;;
76332;SDS011;71254;53.010;6.508;2024-02-04T10:02:03;6.05;;;2.40;;
76332;SDS011;71254;53.010;6.508;2024-02-04T10:04:30;5.63;;;2.00;;
76332;SDS011;71254;53.010;6.508;2024-02-04T10:06:56;8.57;;;2.17;;
76332;SDS011;71254;53.010;6.508;2024-02-04T10:09:22;5.72;;;1.95;;
76332;SDS011;71254;53.010;6.508;2024-02-04T10:11:47;7.78;;;2.40;;
76332;SDS011;71254;53.010;6.508;2024-02-04T10:14:13;7.47;;;2.25;;
76332;SDS011;71254;53.010;6.508;2024-02-04T10:16:39;6.25;;;2.50;;
76332;SDS011;71254;53.010;6.508;2024-02-04T10:19:05;7.57;;;2.05;;
76332;SDS011;71254;53.010;6.508;2024-02-04T10:21:31;9.18;;;2.88;;
76332;SDS011;71254;53.010;6.508;2024-02-04T10:23:56;8.27;;;2.50;;
76332;SDS011;71254;53.010;6.508;2024-02-04T10:26:23;9.75;;;2.50;;
76332;SDS011;71254;53.010;6.508;2024-02-04T10:28:57;5.82;;;2.15;;
76332;SDS011;71254;53.010;6.508;2024-02-04T10:31:22;8.48;;;2.35;;
76332;SDS011;71254;53.010;6.508;2024-02-04T10:33:49;8.55;;;2.10;;
76332;SDS011;71254;53.010;6.508;2024-02-04T10:36:16;6.13;;;1.65;;
76332;SDS011;71254;53.010;6.508;2024-02-04T10:38:42;5.70;;;2.00;;
76332;SDS011;71254;53.010;6.508;2024-02-04T10:41:07;6.32;;;2.17;;
76332;SDS011;71254;53.010;6.508;2024-02-04T10:43:39;8.32;;;2.10;;
76332;SDS011;71254;53.010;6.508;2024-02-04T10:46:18;4.30;;;1.73;;
76332;SDS011;71254;53.010;6.508;2024-02-04T10:48:46;4.20;;;1.88;;
76332;SDS011;71254;53.010;6.508;2024-02-04T10:51:19;6.13;;;1.65;;
76332;SDS011;71254;53.010;6.508;2024-02-04T10:53:51;5.78;;;2.50;;
76332;SDS011;71254;53.010;6.508;2024-02-04T10:56:27;4.90;;;1.63;;
76332;SDS011;71254;53.010;6.508;2024-02-04T10:58:57;8.75;;;2.15;;
76332;SDS011;71254;53.010;6.508;2024-02-04T11:01:25;4.32;;;1.67;;
76332;SDS011;71254;53.010;6.508;2024-02-04T11:03:51;6.80;;;2.05;;
76332;SDS011;71254;53.010;6.508;2024-02-04T11:06:20;5.90;;;2.30;;
76332;SDS011;71254;53.010;6.508;2024-02-04T11:08:47;5.20;;;1.80;;
76332;SDS011;71254;53.010;6.508;2024-02-04T11:11:13;7.13;;;2.15;;
76332;SDS011;71254;53.010;6.508;2024-02-04T11:13:39;12.13;;;2.33;;
76332;SDS011;71254;53.010;6.508;2024-02-04T11:16:10;4.27;;;1.90;;
76332;SDS011;71254;53.010;6.508;2024-02-04T11:18:58;6.43;;;2.33;;
76332;SDS011;71254;53.010;6.508;2024-02-04T11:27:50;7.57;;;2.90;;
76332;SDS011;71254;53.010;6.508;2024-02-04T11:30:16;5.55;;;2.28;;
76332;SDS011;71254;53.010;6.508;2024-02-04T11:32:42;6.03;;;2.40;;
76332;SDS011;71254;53.010;6.508;2024-02-04T11:35:08;5.22;;;2.67;;
76332;SDS011;71254;53.010;6.508;2024-02-04T11:37:36;6.60;;;2.70;;
76332;SDS011;71254;53.010;6.508;2024-02-04T11:40:03;5.43;;;2.45;;
76332;SDS011;71254;53.010;6.508;2024-02-04T11:42:32;6.13;;;2.90;;
76332;SDS011;71254;53.010;6.508;2024-02-04T11:45:07;5.53;;;2.55;;
76332;SDS011;71254;53.010;6.508;2024-02-04T11:47:34;5.57;;;2.42;;
76332;SDS011;71254;53.010;6.508;2024-02-04T11:50:02;4.57;;;2.35;;
76332;SDS011;71254;53.010;6.508;2024-02-04T11:52:28;6.90;;;2.42;;
76332;SDS011;71254;53.010;6.508;2024-02-04T11:54:54;4.15;;;2.00;;
76332;SDS011;71254;53.010;6.508;2024-02-04T11:57:20;5.63;;;2.47;;
76332;SDS011;71254;53.010;6.508;2024-02-04T11:59:46;3.03;;;1.90;;
76332;SDS011;71254;53.010;6.508;2024-02-04T12:02:12;3.13;;;2.00;;
76332;SDS011;71254;53.010;6.508;2024-02-04T12:04:41;5.07;;;2.00;;
76332;SDS011;71254;53.010;6.508;2024-02-04T12:07:08;4.47;;;2.30;;
76332;SDS011;71254;53.010;6.508;2024-02-04T12:09:34;5.45;;;2.13;;
76332;SDS011;71254;53.010;6.508;2024-02-04T12:12:00;5.25;;;2.22;;
76332;SDS011;71254;53.010;6.508;2024-02-04T12:14:28;4.97;;;2.00;;
76332;SDS011;71254;53.010;6.508;2024-02-04T12:16:54;4.90;;;2.45;;
76332;SDS011;71254;53.010;6.508;2024-02-04T12:19:22;5.00;;;1.98;;
76332;SDS011;71254;53.010;6.508;2024-02-04T12:21:52;3.95;;;1.85;;
76332;SDS011;71254;53.010;6.508;2024-02-04T12:24:20;4.22;;;2.10;;
76332;SDS011;71254;53.010;6.508;2024-02-04T12:26:45;5.60;;;1.95;;
76332;SDS011;71254;53.010;6.508;2024-02-04T12:29:12;4.10;;;2.00;;
76332;SDS011;71254;53.010;6.508;2024-02-04T12:31:39;4.68;;;1.73;;
76332;SDS011;71254;53.010;6.508;2024-02-04T12:34:05;5.72;;;2.30;;
76332;SDS011;71254;53.010;6.508;2024-02-04T12:36:33;3.35;;;1.63;;
76332;SDS011;71254;53.010;6.508;2024-02-04T12:39:01;3.55;;;1.38;;
76332;SDS011;71254;53.010;6.508;2024-02-04T12:41:28;6.45;;;1.95;;
76332;SDS011;71254;53.010;6.508;2024-02-04T12:43:55;4.22;;;1.52;;
76332;SDS011;71254;53.010;6.508;2024-02-04T12:46:23;5.85;;;1.65;;
76332;SDS011;71254;53.010;6.508;2024-02-04T12:48:52;6.57;;;1.70;;
76332;SDS011;71254;53.010;6.508;2024-02-04T12:54:02;6.25;;;1.50;;
76332;SDS011;71254;53.010;6.508;2024-02-04T12:56:39;5.18;;;2.00;;
76332;SDS011;71254;53.010;6.508;2024-02-04T12:59:12;3.70;;;1.42;;
76332;SDS011;71254;53.010;6.508;2024-02-04T13:04:25;3.88;;;1.83;;
76332;SDS011;71254;53.010;6.508;2024-02-04T13:06:51;8.35;;;1.60;;
76332;SDS011;71254;53.010;6.508;2024-02-04T13:09:18;4.40;;;1.80;;
76332;SDS011;71254;53.010;6.508;2024-02-04T13:11:44;8.25;;;2.08;;
76332;SDS011;71254;53.010;6.508;2024-02-04T13:14:10;6.60;;;2.03;;
76332;SDS011;71254;53.010;6.508;2024-02-04T13:16:37;4.43;;;1.73;;
76332;SDS011;71254;53.010;6.508;2024-02-04T13:19:02;7.40;;;1.90;;
76332;SDS011;71254;53.010;6.508;2024-02-04T13:21:28;5.05;;;1.45;;
76332;SDS011;71254;53.010;6.508;2024-02-04T13:23:54;5.38;;;1.95;;
76332;SDS011;71254;53.010;6.508;2024-02-04T13:26:20;4.97;;;1.92;;
76332;SDS011;71254;53.010;6.508;2024-02-04T13:28:46;4.82;;;1.85;;
76332;SDS011;71254;53.010;6.508;2024-02-04T13:31:11;9.10;;;1.60;;
76332;SDS011;71254;53.010;6.508;2024-02-04T13:33:40;7.70;;;1.88;;
76332;SDS011;71254;53.010;6.508;2024-02-04T13:36:09;4.53;;;1.77;;
76332;SDS011;71254;53.010;6.508;2024-02-04T13:38:35;4.78;;;1.95;;
76332;SDS011;71254;53.010;6.508;2024-02-04T13:41:01;7.30;;;2.00;;
76332;SDS011;71254;53.010;6.508;2024-02-04T13:43:29;4.82;;;1.70;;
76332;SDS011;71254;53.010;6.508;2024-02-04T13:45:55;5.03;;;1.52;;
76332;SDS011;71254;53.010;6.508;2024-02-04T13:48:21;3.78;;;1.55;;
76332;SDS011;71254;53.010;6.508;2024-02-04T13:50:47;3.47;;;1.70;;
76332;SDS011;71254;53.010;6.508;2024-02-04T13:53:13;3.78;;;1.58;;
76332;SDS011;71254;53.010;6.508;2024-02-04T13:55:39;4.72;;;1.70;;
76332;SDS011;71254;53.010;6.508;2024-02-04T13:58:05;4.32;;;1.48;;
76332;SDS011;71254;53.010;6.508;2024-02-04T14:00:31;6.28;;;1.80;;
76332;SDS011;71254;53.010;6.508;2024-02-04T14:02:56;4.57;;;1.70;;
76332;SDS011;71254;53.010;6.508;2024-02-04T14:05:22;4.32;;;1.63;;
76332;SDS011;71254;53.010;6.508;2024-02-04T14:07:50;6.03;;;1.83;;
76332;SDS011;71254;53.010;6.508;2024-02-04T14:10:15;7.03;;;1.95;;
76332;SDS011;71254;53.010;6.508;2024-02-04T14:12:41;5.30;;;1.90;;
76332;SDS011;71254;53.010;6.508;2024-02-04T14:15:10;3.33;;;2.03;;
76332;SDS011;71254;53.010;6.508;2024-02-04T14:17:39;5.72;;;2.00;;
76332;SDS011;71254;53.010;6.508;2024-02-04T14:20:05;6.47;;;2.28;;
76332;SDS011;71254;53.010;6.508;2024-02-04T14:22:32;5.72;;;1.92;;
76332;SDS011;71254;53.010;6.508;2024-02-04T14:24:57;5.18;;;1.80;;
76332;SDS011;71254;53.010;6.508;2024-02-04T14:27:25;5.20;;;1.70;;
76332;SDS011;71254;53.010;6.508;2024-02-04T14:29:50;5.18;;;2.03;;
76332;SDS011;71254;53.010;6.508;2024-02-04T14:32:16;2.67;;;1.75;;
76332;SDS011;71254;53.010;6.508;2024-02-04T14:34:41;4.85;;;2.03;;
76332;SDS011;71254;53.010;6.508;2024-02-04T14:37:07;5.05;;;2.28;;
76332;SDS011;71254;53.010;6.508;2024-02-04T14:39:33;4.05;;;2.15;;
76332;SDS011;71254;53.010;6.508;2024-02-04T14:41:59;5.50;;;2.55;;
76332;SDS011;71254;53.010;6.508;2024-02-04T14:44:24;7.53;;;2.40;;
76332;SDS011;71254;53.010;6.508;2024-02-04T14:46:50;4.03;;;2.30;;
76332;SDS011;71254;53.010;6.508;2024-02-04T14:49:15;5.00;;;2.05;;
76332;SDS011;71254;53.010;6.508;2024-02-04T14:51:41;3.30;;;1.98;;
76332;SDS011;71254;53.010;6.508;2024-02-04T14:54:07;6.35;;;2.30;;